Time;durP1;ratioP1;P1;durP2;ratioP2;P2;SDS_P1;SDS_P2;PMS_P1;PMS_P2;Temp;Humidity;BMP_temperature;BMP_pressure;BME280_temperature;BME280_humidity;BME280_pressure;Samples;Min_cycle;Max_cycle;Signal;HPM_P1;HPM_P2
2022/04/20 00:01:06;;;;;;;4.10;2.83;;;17.30;49.20;;;;;;3912501;30;20118;-69
2022/04/20 00:03:29;;;;;;;2.97;2.67;;;17.30;48.90;;;;;;3911698;30;20052;-70
2022/04/20 00:05:51;;;;;;;2.97;2.78;;;17.30;49.00;;;;;;3911786;30;20057;-69
2022/04/20 00:08:13;;;;;;;2.92;2.72;;;17.30;48.80;;;;;;3911708;30;20179;-70
2022/04/20 00:10:36;;;;;;;3.30;3.00;;;17.30;48.60;;;;;;3911914;30;20057;-70
2022/04/20 00:12:58;;;;;;;2.75;2.53;;;17.30;48.70;;;;;;3911625;30;20215;-70
2022/04/20 00:15:22;;;;;;;4.82;2.60;;;17.30;48.90;;;;;;3912123;30;20493;-69
2022/04/20 00:17:44;;;;;;;4.35;2.83;;;17.30;49.40;;;;;;3912066;30;20144;-70
2022/04/20 00:20:08;;;;;;;3.63;2.80;;;17.30;50.00;;;;;;3896297;30;20057;-70
2022/04/20 00:22:30;;;;;;;3.33;3.03;;;17.30;50.10;;;;;;3897524;30;20052;-70
2022/04/20 00:24:52;;;;;;;4.00;3.03;;;17.30;50.50;;;;;;3897497;30;20560;-70
2022/04/20 00:27:14;;;;;;;3.30;2.78;;;17.30;50.00;;;;;;3905345;30;20060;-70
2022/04/20 00:29:36;;;;;;;3.65;2.78;;;17.30;50.40;;;;;;3911865;30;20115;-71
2022/04/20 00:32:00;;;;;;;5.38;3.00;;;17.30;50.10;;;;;;3911505;30;20067;-70
2022/04/20 00:34:22;;;;;;;3.38;2.92;;;17.30;50.40;;;;;;3898521;30;20057;-70
2022/04/20 00:36:50;;;;;;;4.20;2.90;;;17.30;50.90;;;;;;3911525;30;20077;-70
2022/04/20 00:39:13;;;;;;;3.55;3.05;;;17.30;51.30;;;;;;3905148;30;20063;-69
2022/04/20 00:41:35;;;;;;;4.68;2.75;;;17.30;51.10;;;;;;3910894;30;20055;-70
2022/04/20 00:43:57;;;;;;;2.80;2.60;;;17.30;50.60;;;;;;3909884;30;20088;-70
2022/04/20 00:46:20;;;;;;;3.08;2.70;;;17.30;50.50;;;;;;3911146;30;20067;-70
2022/04/20 00:48:44;;;;;;;4.22;2.90;;;17.30;51.00;;;;;;3911495;30;20565;-69
2022/04/20 00:51:06;;;;;;;3.30;2.58;;;17.30;50.50;;;;;;3898169;30;20492;-70
2022/04/20 00:53:28;;;;;;;4.97;3.00;;;17.30;51.70;;;;;;3911593;30;20059;-70
2022/04/20 00:55:50;;;;;;;2.78;2.53;;;17.30;50.60;;;;;;3895616;30;20075;-71
2022/04/20 00:58:13;;;;;;;3.17;2.92;;;17.30;51.00;;;;;;3897998;30;20064;-70
2022/04/20 01:00:36;;;;;;;3.42;2.92;;;17.30;50.90;;;;;;3898481;30;20072;-70
2022/04/20 01:02:59;;;;;;;5.88;3.22;;;17.30;51.30;;;;;;3898063;30;20072;-70
2022/04/20 01:05:31;;;;;;;3.50;3.20;;;17.30;51.70;;;;;;3897248;30;20056;-70
2022/04/20 01:08:15;;;;;;;3.40;2.88;;;17.30;51.90;;;;;;3898111;30;20530;-70
2022/04/20 01:10:55;;;;;;;5.32;2.85;;;17.20;52.10;;;;;;3910530;30;20063;-70
2022/04/20 01:13:39;;;;;;;3.40;3.10;;;17.30;52.20;;;;;;3911203;30;20065;-70
2022/04/20 01:16:37;;;;;;;3.83;3.00;;;17.30;52.50;;;;;;3888587;30;20118;-70
2022/04/20 01:19:32;;;;;;;4.95;3.30;;;17.20;52.50;;;;;;3903378;30;20473;-70
2022/04/20 01:22:16;;;;;;;3.25;2.95;;;17.30;52.60;;;;;;3914349;30;20473;-70
2022/04/20 01:24:56;;;;;;;5.47;2.95;;;17.30;53.40;;;;;;3914096;30;20132;-69
2022/04/20 01:27:23;;;;;;;3.78;3.33;;;17.30;52.70;;;;;;3899650;30;20088;-70
2022/04/20 01:30:09;;;;;;;4.10;3.00;;;17.30;52.70;;;;;;3899250;30;20587;-70
2022/04/20 01:32:44;;;;;;;3.67;2.92;;;17.30;52.70;;;;;;3886193;30;20143;-69
2022/04/20 01:35:14;;;;;;;3.00;2.70;;;17.30;53.40;;;;;;3899931;30;20221;-70
2022/04/20 01:37:38;;;;;;;5.13;3.13;;;17.20;52.60;;;;;;3900772;30;20387;-69
2022/04/20 01:40:00;;;;;;;7.53;3.40;;;17.20;52.60;;;;;;3900715;30;20075;-70
2022/04/20 01:42:22;;;;;;;4.53;3.60;;;17.20;52.30;;;;;;3897831;30;20144;-69
2022/04/20 01:44:47;;;;;;;3.38;2.95;;;17.30;52.40;;;;;;3910988;30;20083;-69
2022/04/20 01:47:42;;;;;;;3.38;2.97;;;17.20;52.40;;;;;;3913305;30;20616;-69
2022/04/20 01:50:27;;;;;;;4.85;3.17;;;17.30;52.60;;;;;;3912855;30;20056;-69
2022/04/20 01:53:06;;;;;;;4.30;2.83;;;17.30;53.60;;;;;;3900284;30;20143;-69
2022/04/20 01:55:54;;;;;;;3.72;3.42;;;17.30;53.10;;;;;;3900280;30;20056;-69
2022/04/20 01:58:28;;;;;;;5.85;3.00;;;17.20;53.20;;;;;;3899985;30;20064;-69
2022/04/20 02:03:46;;;;;;;3.13;2.67;;;17.20;53.20;;;;;;3899795;30;20064;-69
2022/04/20 02:06:14;;;;;;;3.53;3.00;;;17.20;53.10;;;;;;3900213;30;20111;-70
2022/04/20 02:08:55;;;;;;;;;;;17.20;53.10;;;;;;3901280;30;20074;-69
2022/04/20 02:11:46;;;;;;;2.70;2.42;;;17.20;53.10;;;;;;3900030;30;20401;-69
2022/04/20 02:14:35;;;;;;;3.53;2.95;;;17.20;53.60;;;;;;3899272;30;20080;-69
2022/04/20 02:17:08;;;;;;;4.40;3.00;;;17.20;53.40;;;;;;3907677;30;20060;-70
2022/04/20 02:19:34;;;;;;;3.90;2.90;;;17.20;53.40;;;;;;3903630;30;20114;-69
2022/04/20 02:22:15;;;;;;;2.88;2.63;;;17.20;53.30;;;;;;3899888;30;20493;-69
2022/04/20 02:24:38;;;;;;;3.55;2.63;;;17.20;53.40;;;;;;3899964;30;20068;-69
2022/04/20 02:27:01;;;;;;;3.25;2.80;;;17.20;53.40;;;;;;3899592;30;20060;-69
2022/04/20 02:29:23;;;;;;;2.70;2.50;;;17.20;53.40;;;;;;3899299;30;20071;-68
2022/04/20 02:31:45;;;;;;;2.92;2.72;;;17.20;53.40;;;;;;3899454;30;20526;-69
2022/04/20 02:34:07;;;;;;;3.30;3.00;;;17.10;53.80;;;;;;3899744;30;20065;-69
2022/04/20 02:36:31;;;;;;;3.38;3.05;;;17.10;53.40;;;;;;3899774;30;20051;-68
2022/04/20 02:38:54;;;;;;;4.53;2.67;;;17.10;53.40;;;;;;3908765;30;20056;-69
2022/04/20 02:41:17;;;;;;;3.40;3.10;;;17.10;53.40;;;;;;3898918;30;20107;-68
2022/04/20 02:43:39;;;;;;;4.85;2.92;;;17.10;53.40;;;;;;3906593;30;20055;-69
2022/04/20 02:46:01;;;;;;;2.95;2.75;;;17.10;53.40;;;;;;3912151;30;20063;-69
2022/04/20 02:48:23;;;;;;;3.30;3.10;;;17.10;53.50;;;;;;3911417;30;20091;-69
2022/04/20 02:50:46;;;;;;;3.55;3.13;;;17.10;53.60;;;;;;3898798;30;20072;-69
2022/04/20 02:53:09;;;;;;;2.78;2.30;;;17.10;54.30;;;;;;3885416;30;20458;-69
2022/04/20 02:55:33;;;;;;;3.15;2.53;;;17.10;53.50;;;;;;3885011;30;20092;-69
2022/04/20 02:57:56;;;;;;;4.60;3.25;;;17.10;53.60;;;;;;3908609;30;20563;-69
2022/04/20 03:00:19;;;;;;;3.35;2.88;;;17.10;53.70;;;;;;3899414;30;20115;-70
2022/04/20 03:02:49;;;;;;;3.83;3.38;;;17.10;53.70;;;;;;3899261;30;20072;-69
2022/04/20 03:05:11;;;;;;;2.85;2.65;;;17.10;54.50;;;;;;3912884;30;20103;-69
2022/04/20 03:07:33;;;;;;;3.17;2.60;;;17.10;53.80;;;;;;3912698;30;20056;-69
2022/04/20 03:09:55;;;;;;;2.88;2.67;;;17.10;53.80;;;;;;3912704;30;20075;-69
2022/04/20 03:12:21;;;;;;;3.00;2.80;;;17.10;53.90;;;;;;3899379;30;20081;-70
2022/04/20 03:14:48;;;;;;;3.70;2.78;;;17.10;53.80;;;;;;3899435;30;20048;-69
2022/04/20 03:17:10;;;;;;;4.15;3.20;;;17.00;53.80;;;;;;3899159;30;20175;-70
2022/04/20 03:19:33;;;;;;;3.90;3.28;;;17.00;53.80;;;;;;3898896;30;20555;-69
2022/04/20 03:21:55;;;;;;;6.18;3.10;;;17.00;53.80;;;;;;3912396;30;20052;-70
2022/04/20 03:24:20;;;;;;;3.38;3.10;;;17.00;53.90;;;;;;3899186;30;20060;-70
2022/04/20 03:27:06;;;;;;;3.25;2.95;;;17.00;53.90;;;;;;3911669;30;20056;-69
2022/04/20 03:29:31;;;;;;;3.22;2.75;;;17.00;54.00;;;;;;3899126;30;20494;-69
2022/04/20 03:31:57;;;;;;;2.75;2.53;;;17.00;53.90;;;;;;3886485;30;20139;-69
2022/04/20 03:34:21;;;;;;;2.80;2.30;;;17.00;53.90;;;;;;3899259;30;20064;-70
2022/04/20 03:36:43;;;;;;;3.72;3.15;;;17.00;53.90;;;;;;3898858;30;20076;-70
2022/04/20 03:39:07;;;;;;;3.45;3.15;;;17.00;54.00;;;;;;3911862;30;20107;-68
2022/04/20 03:41:29;;;;;;;5.00;2.60;;;17.00;54.10;;;;;;3912247;30;20080;-69
2022/04/20 03:43:51;;;;;;;3.50;2.60;;;17.00;54.10;;;;;;3912262;30;20440;-69
2022/04/20 03:46:16;;;;;;;3.00;2.55;;;16.90;54.80;;;;;;3911889;30;20045;-69
2022/04/20 03:48:40;;;;;;;2.97;2.78;;;16.90;54.20;;;;;;3911858;30;20064;-68
2022/04/20 03:51:02;;;;;;;3.95;2.65;;;16.90;54.10;;;;;;3898908;30;20459;-69
2022/04/20 03:53:25;;;;;;;3.95;2.67;;;16.90;54.20;;;;;;3898825;30;20130;-70
2022/04/20 03:55:50;;;;;;;3.10;2.80;;;16.90;54.30;;;;;;3898447;30;20190;-68
2022/04/20 03:58:13;;;;;;;3.30;3.00;;;16.90;54.20;;;;;;3898743;30;20060;-69
2022/04/20 04:00:37;;;;;;;4.75;2.55;;;16.90;54.20;;;;;;3898843;30;20074;-70
2022/04/20 04:03:00;;;;;;;4.20;2.65;;;16.90;54.20;;;;;;3898644;30;20056;-69
2022/04/20 04:05:29;;;;;;;3.50;3.20;;;16.90;54.30;;;;;;3898223;30;20049;-69
2022/04/20 04:07:57;;;;;;;4.32;3.10;;;16.90;54.30;;;;;;3899029;30;20595;-69
2022/04/20 04:10:24;;;;;;;5.43;3.13;;;16.90;54.20;;;;;;3898126;30;20064;-68
2022/04/20 04:12:47;;;;;;;3.28;2.95;;;16.90;53.50;;;;;;3898623;30;20537;-69
2022/04/20 04:15:10;;;;;;;7.60;3.15;;;16.80;53.50;;;;;;3907808;30;20072;-70
2022/04/20 04:17:32;;;;;;;4.28;3.30;;;16.80;52.40;;;;;;3898795;30;20068;-70
2022/04/20 04:19:55;;;;;;;3.60;3.33;;;16.80;52.00;;;;;;3897584;30;20418;-69
2022/04/20 04:22:18;;;;;;;5.55;2.88;;;16.80;52.70;;;;;;3912254;30;20119;-69
2022/04/20 04:24:59;;;;;;;4.30;3.30;;;16.70;52.10;;;;;;3911499;30;20068;-69
2022/04/20 04:27:23;;;;;;;5.80;3.45;;;16.70;52.50;;;;;;3898888;30;20048;-70
2022/04/20 04:29:45;;;;;;;3.10;2.72;;;16.70;52.60;;;;;;3911997;30;20064;-69
2022/04/20 04:32:08;;;;;;;3.60;3.33;;;16.60;53.20;;;;;;3911547;30;20059;-69
2022/04/20 04:34:32;;;;;;;3.95;3.15;;;16.60;53.20;;;;;;3898259;30;20060;-69
2022/04/20 04:36:58;;;;;;;3.75;3.22;;;16.60;52.50;;;;;;3896532;30;20075;-69
2022/04/20 04:39:24;;;;;;;4.18;3.00;;;16.60;52.70;;;;;;3896719;30;20493;-69
2022/04/20 04:41:47;;;;;;;3.25;2.83;;;16.60;52.50;;;;;;3884093;30;20057;-69
2022/04/20 04:44:09;;;;;;;4.25;2.90;;;16.50;52.70;;;;;;3907962;30;20073;-70
2022/04/20 04:49:26;;;;;;;3.45;3.15;;;16.50;52.60;;;;;;3876333;30;20164;-69
2022/04/20 04:51:49;;;;;;;3.22;2.92;;;16.50;52.90;;;;;;3901640;30;20158;-70
2022/04/20 04:54:14;;;;;;;4.25;2.90;;;16.40;53.00;;;;;;3901605;30;20053;-69
2022/04/20 04:56:38;;;;;;;3.35;3.03;;;16.40;52.50;;;;;;3887117;30;20196;-71
2022/04/20 04:59:00;;;;;;;2.90;2.70;;;16.40;52.70;;;;;;3886765;30;20123;-69
2022/04/20 05:01:24;;;;;;;5.45;2.95;;;16.40;52.90;;;;;;3886585;30;20560;-68
2022/04/20 05:03:49;;;;;;;3.92;3.55;;;16.40;52.90;;;;;;3899874;30;20065;-68
2022/04/20 05:06:12;;;;;;;3.47;3.13;;;16.40;52.50;;;;;;3904187;30;20049;-68
2022/04/20 05:08:58;;;;;;;3.10;2.63;;;16.40;52.30;;;;;;3900723;30;20111;-68
2022/04/20 05:11:21;;;;;;;10.15;3.08;;;16.40;52.40;;;;;;3900946;30;20064;-68
2022/04/20 05:13:45;;;;;;;3.63;3.20;;;16.40;52.80;;;;;;3907016;30;20189;-69
2022/04/20 05:16:08;;;;;;;5.88;3.05;;;16.30;53.20;;;;;;3900412;30;20056;-69
2022/04/20 05:18:31;;;;;;;4.80;3.15;;;16.30;53.20;;;;;;3900736;30;20057;-69
2022/04/20 05:20:53;;;;;;;3.35;3.15;;;16.40;53.00;;;;;;3914128;30;20056;-68
2022/04/20 05:23:16;;;;;;;5.50;3.42;;;16.40;54.00;;;;;;3900688;30;20202;-68
2022/04/20 05:25:39;;;;;;;3.42;2.88;;;16.40;53.40;;;;;;3899749;30;20060;-68
2022/04/20 05:28:03;;;;;;;4.07;3.20;;;16.40;53.60;;;;;;3900879;30;20049;-69
2022/04/20 05:30:26;;;;;;;4.43;3.25;;;16.40;53.50;;;;;;3900926;30;20072;-69
2022/04/20 05:32:49;;;;;;;3.28;3.08;;;16.40;53.60;;;;;;3886318;30;20073;-68
2022/04/20 05:35:17;;;;;;;5.35;3.45;;;16.40;53.20;;;;;;3900676;30;20060;-68
2022/04/20 05:43:06;;;;;;;6.70;3.40;;;16.40;52.80;;;;;;3879146;30;20414;-67
2022/04/20 05:45:29;;;;;;;8.27;3.45;;;16.50;52.40;;;;;;3903328;30;20057;-67
2022/04/20 05:48:14;;;;;;;5.85;3.67;;;16.50;52.00;;;;;;3913544;30;20104;-67
2022/04/20 05:50:36;;;;;;;5.53;3.67;;;16.50;52.20;;;;;;3914444;30;20069;-67
2022/04/20 05:52:59;;;;;;;5.00;3.67;;;16.40;52.40;;;;;;3900692;30;20139;-68
2022/04/20 05:55:21;;;;;;;4.47;3.60;;;16.40;52.20;;;;;;3913718;30;20378;-68
2022/04/20 05:57:47;;;;;;;3.75;3.42;;;16.40;52.30;;;;;;3900715;30;20502;-68
2022/04/20 06:00:10;;;;;;;6.40;4.07;;;16.40;52.30;;;;;;3910144;30;20147;-68
2022/04/20 06:02:46;;;;;;;5.47;3.85;;;16.40;52.20;;;;;;3893123;30;20064;-68
2022/04/20 06:05:13;;;;;;;4.05;3.55;;;16.40;52.20;;;;;;3900744;30;20068;-68
2022/04/20 06:07:41;;;;;;;4.13;3.72;;;16.30;52.30;;;;;;3900328;30;20053;-68
2022/04/20 06:10:23;;;;;;;4.68;3.75;;;16.30;52.50;;;;;;3913650;30;20220;-68
2022/04/20 06:12:50;;;;;;;4.18;3.80;;;16.30;52.50;;;;;;3900333;30;20060;-68
2022/04/20 06:15:30;;;;;;;3.85;3.55;;;16.30;52.80;;;;;;3913888;30;20071;-67
2022/04/20 06:18:07;;;;;;;5.32;3.75;;;16.30;52.90;;;;;;3912450;30;20056;-68
2022/04/20 06:20:29;;;;;;;4.72;4.10;;;16.30;52.90;;;;;;3912849;30;20068;-68
2022/04/20 06:23:08;;;;;;;6.35;4.40;;;16.30;52.80;;;;;;3900105;30;20118;-68
2022/04/20 06:25:43;;;;;;;4.82;4.10;;;16.30;52.60;;;;;;3913816;30;20543;-68
2022/04/20 06:28:25;;;;;;;5.03;4.13;;;16.30;52.60;;;;;;3912554;30;20576;-68
2022/04/20 06:30:58;;;;;;;6.57;4.25;;;16.30;52.40;;;;;;3912068;30;20110;-68
2022/04/20 06:33:37;;;;;;;6.60;4.22;;;16.30;52.60;;;;;;3913359;30;20189;-68
2022/04/20 06:36:07;;;;;;;4.43;3.22;;;16.40;52.70;;;;;;3900318;30;20057;-67
2022/04/20 06:38:47;;;;;;;4.47;4.05;;;16.40;52.60;;;;;;3912411;30;20069;-68
2022/04/20 06:41:21;;;;;;;6.18;4.10;;;16.40;52.40;;;;;;3911843;30;20049;-68
2022/04/20 06:44:02;;;;;;;7.85;4.22;;;16.50;52.50;;;;;;3913536;30;20055;-68
2022/04/20 06:46:33;;;;;;;4.22;3.83;;;16.50;52.20;;;;;;3913145;30;20063;-68
2022/04/20 06:49:17;;;;;;;4.35;3.63;;;16.50;51.70;;;;;;3913625;30;20078;-68
2022/04/20 06:59:56;;;;;;;5.82;3.60;;;16.60;51.00;;;;;;3912134;30;20082;-68
2022/04/20 07:02:33;;;;;;;5.15;3.60;;;16.70;50.70;;;;;;3885364;30;20510;-68
2022/04/20 07:05:32;;;;;;;4.50;3.70;;;16.70;50.60;;;;;;3898402;30;20559;-67
2022/04/20 07:08:13;;;;;;;3.97;3.50;;;16.70;50.80;;;;;;3905303;30;20095;-67
2022/04/20 07:10:39;;;;;;;5.03;3.55;;;16.70;50.60;;;;;;3885690;30;20072;-67
2022/04/20 07:13:06;;;;;;;5.95;3.70;;;16.80;50.10;;;;;;3893274;30;20540;-68
2022/04/20 07:15:29;;;;;;;4.10;3.58;;;16.80;50.10;;;;;;3910321;30;20147;-68
2022/04/20 07:17:51;;;;;;;3.65;3.35;;;16.80;49.60;;;;;;3914212;30;20109;-67
2022/04/20 07:20:46;;;;;;;3.92;3.63;;;16.90;49.30;;;;;;3885207;30;20064;-66
2022/04/20 07:23:23;;;;;;;4.05;2.90;;;16.90;49.10;;;;;;3895214;30;20096;-65
2022/04/20 07:25:49;;;;;;;7.35;3.47;;;16.90;49.00;;;;;;3898190;30;20111;-67
2022/04/20 07:28:30;;;;;;;;;;;16.90;49.00;;;;;;3907968;30;20195;-67
2022/04/20 07:31:01;;;;;;;3.60;3.25;;;16.90;49.00;;;;;;3911721;30;19956;-67
2022/04/20 07:33:41;;;;;;;3.65;3.38;;;16.90;48.60;;;;;;3911634;30;20166;-67
2022/04/20 07:36:25;;;;;;;3.80;3.33;;;16.90;47.90;;;;;;3884521;30;20053;-66
2022/04/20 07:39:18;;;;;;;4.45;3.03;;;16.90;47.70;;;;;;3913739;30;20052;-67
2022/04/20 07:42:00;;;;;;;3.72;3.28;;;16.90;48.00;;;;;;3911992;30;20128;-66
2022/04/20 07:44:43;;;;;;;4.60;3.05;;;16.90;47.80;;;;;;3912373;30;20509;-67
2022/04/20 07:47:12;;;;;;;3.00;2.80;;;17.00;47.40;;;;;;3898614;30;20061;-67
2022/04/20 07:52:50;;;;;;;4.45;3.17;;;17.00;47.40;;;;;;3900578;30;20064;-67
2022/04/20 07:55:33;;;;;;;5.10;3.30;;;17.00;47.50;;;;;;3926784;30;20052;-67
2022/04/20 07:58:03;;;;;;;4.50;3.00;;;17.10;47.40;;;;;;3913644;30;20052;-67
2022/04/20 08:00:38;;;;;;;3.58;2.83;;;17.10;47.70;;;;;;3910900;30;20077;-66
2022/04/20 08:03:23;;;;;;;4.70;2.97;;;17.10;47.60;;;;;;3888124;30;20206;-66
2022/04/20 08:05:49;;;;;;;3.17;2.92;;;17.20;47.40;;;;;;3912393;30;20067;-66
2022/04/20 08:08:12;;;;;;;3.47;3.15;;;17.20;46.90;;;;;;3898620;30;20069;-64
2022/04/20 08:10:35;;;;;;;4.63;3.20;;;17.20;47.10;;;;;;3899186;30;20115;-64
2022/04/20 08:12:57;;;;;;;4.43;2.95;;;17.30;47.30;;;;;;3912341;30;20064;-64
2022/04/20 08:15:22;;;;;;;3.15;2.88;;;17.30;47.70;;;;;;3898586;30;20057;-64
2022/04/20 08:17:47;;;;;;;4.32;3.00;;;17.40;46.40;;;;;;3898478;30;20067;-64
2022/04/20 08:20:32;;;;;;;2.80;2.60;;;17.40;46.10;;;;;;3908524;30;20061;-64
2022/04/20 08:22:54;;;;;;;3.70;2.90;;;17.40;47.10;;;;;;3895653;30;20169;-65
2022/04/20 08:25:18;;;;;;;3.72;2.60;;;17.40;46.10;;;;;;3900385;30;20080;-63
2022/04/20 08:27:41;;;;;;;5.70;3.13;;;17.40;45.50;;;;;;3900303;30;20078;-64
2022/04/20 08:30:04;;;;;;;2.90;2.60;;;17.40;45.80;;;;;;3907970;30;20065;-64
2022/04/20 08:32:26;;;;;;;2.85;2.55;;;17.40;46.20;;;;;;3915458;30;20134;-63
2022/04/20 08:34:50;;;;;;;8.27;2.97;;;17.40;46.20;;;;;;3915072;30;20060;-63
2022/04/20 08:37:21;;;;;;;7.70;3.22;;;17.50;46.30;;;;;;3914397;30;20072;-63
2022/04/20 08:39:43;;;;;;;4.18;2.72;;;17.50;46.50;;;;;;3914691;30;20490;-64
2022/04/20 08:42:11;;;;;;;4.57;2.95;;;17.50;46.70;;;;;;3915246;30;20060;-63
2022/04/20 08:44:36;;;;;;;6.60;3.30;;;17.50;45.90;;;;;;3914607;30;20060;-64
2022/04/20 08:47:01;;;;;;;4.63;2.78;;;17.50;46.30;;;;;;3915109;30;20076;-64
2022/04/20 08:49:23;;;;;;;8.50;2.72;;;17.50;45.80;;;;;;3915090;30;21057;-63
2022/04/20 08:54:25;;;;;;;29.50;5.78;;;17.50;45.40;;;;;;3914598;30;20059;-64
2022/04/20 08:59:27;;;;;;;2.58;2.30;;;17.60;46.20;;;;;;3914414;30;20060;-64
2022/04/20 09:01:50;;;;;;;3.72;2.60;;;17.60;46.20;;;;;;3915191;30;20437;-64
2022/04/20 09:04:12;;;;;;;4.78;2.40;;;17.60;45.90;;;;;;3914937;30;20152;-64
2022/04/20 09:06:35;;;;;;;2.60;1.95;;;17.60;45.70;;;;;;3914752;30;20497;-64
2022/04/20 09:08:57;;;;;;;3.15;2.55;;;17.60;45.10;;;;;;3901297;30;20065;-64
2022/04/20 09:11:21;;;;;;;2.00;1.80;;;17.70;45.00;;;;;;3914855;30;20110;-64
2022/04/20 09:13:45;;;;;;;2.28;2.08;;;17.70;44.70;;;;;;3914834;30;20064;-64
2022/04/20 09:16:10;;;;;;;3.53;2.47;;;17.80;43.90;;;;;;3914584;30;20490;-64
2022/04/20 09:18:33;;;;;;;2.08;1.88;;;17.80;44.00;;;;;;3914322;30;20056;-64
2022/04/20 09:21:05;;;;;;;6.05;2.20;;;17.80;45.20;;;;;;3913964;30;20565;-64
2022/04/20 09:23:29;;;;;;;4.53;1.92;;;17.80;45.00;;;;;;3914271;30;20130;-65
2022/04/20 09:25:52;;;;;;;4.45;2.40;;;17.80;45.30;;;;;;3914490;30;20052;-64
2022/04/20 09:28:14;;;;;;;2.75;2.30;;;17.90;43.80;;;;;;3914289;30;20519;-65
2022/04/20 09:30:38;;;;;;;2.30;2.10;;;17.90;43.70;;;;;;3914149;30;20052;-66
2022/04/20 09:33:06;;;;;;;2.47;2.00;;;17.90;43.50;;;;;;3914553;30;20068;-66
2022/04/20 09:35:28;;;;;;;2.60;1.98;;;17.90;43.00;;;;;;3912822;30;20052;-66
2022/04/20 09:38:05;;;;;;;3.00;1.80;;;18.00;42.30;;;;;;3914499;30;20063;-66
2022/04/20 09:40:52;;;;;;;2.38;1.88;;;18.00;41.60;;;;;;3913567;30;20061;-65
2022/04/20 09:43:15;;;;;;;3.53;1.83;;;18.00;42.50;;;;;;3914210;30;20496;-66
2022/04/20 09:45:37;;;;;;;2.50;2.22;;;18.00;43.10;;;;;;3906471;30;20156;-66
2022/04/20 09:50:53;;;;;;;1.95;1.85;;;18.00;41.20;;;;;;3885589;30;20046;-65
2022/04/20 09:53:15;;;;;;;1.77;1.52;;;18.10;41.70;;;;;;3885833;30;20463;-66
2022/04/20 09:55:39;;;;;;;4.20;2.17;;;18.10;41.70;;;;;;3885729;30;20509;-66
2022/04/20 09:58:10;;;;;;;9.48;1.90;;;18.10;41.20;;;;;;3885738;30;20065;-66
2022/04/20 10:00:39;;;;;;;2.00;1.73;;;18.10;41.50;;;;;;3898478;30;20139;-64
2022/04/20 10:03:03;;;;;;;3.25;1.58;;;18.10;41.50;;;;;;3900186;30;20088;-66
2022/04/20 10:05:25;;;;;;;4.72;2.20;;;18.10;41.50;;;;;;3899552;30;20068;-65
2022/04/20 10:07:47;;;;;;;3.88;1.85;;;18.10;41.20;;;;;;3899979;30;20068;-65
2022/04/20 10:10:10;;;;;;;3.33;1.80;;;18.10;40.80;;;;;;3900062;30;20053;-66
2022/04/20 10:12:36;;;;;;;4.30;1.90;;;18.20;39.90;;;;;;3899445;30;20071;-66
2022/04/20 10:17:44;;;;;;;5.00;1.55;;;18.20;39.40;;;;;;3899792;30;20060;-65
2022/04/20 10:20:09;;;;;;;1.50;1.40;;;18.20;38.90;;;;;;3899647;30;20160;-65
2022/04/20 10:22:32;;;;;;;1.25;1.15;;;18.20;38.90;;;;;;3898411;30;20084;-66
2022/04/20 10:24:58;;;;;;;2.53;1.48;;;18.20;38.60;;;;;;3894347;30;20061;-65
2022/04/20 10:27:35;;;;;;;3.60;1.20;;;18.20;38.70;;;;;;3897926;30;20068;-66
2022/04/20 10:30:00;;;;;;;1.00;0.93;;;18.20;38.60;;;;;;3904390;30;20055;-66
2022/04/20 10:32:25;;;;;;;1.10;1.10;;;18.20;37.90;;;;;;3913616;30;20044;-65
2022/04/20 10:34:58;;;;;;;1.15;0.93;;;18.20;37.50;;;;;;3912539;30;20049;-66
2022/04/20 10:38:09;;;;;;;1.15;1.05;;;18.20;37.50;;;;;;3907159;30;20485;-66
2022/04/20 10:40:57;;;;;;;1.05;1.00;;;18.20;37.40;;;;;;3904187;30;20488;-66
2022/04/20 10:43:21;;;;;;;1.35;1.08;;;18.20;37.60;;;;;;3909606;30;20571;-65
2022/04/20 10:46:11;;;;;;;2.28;0.77;;;18.20;38.30;;;;;;3899144;30;20064;-66
2022/04/20 10:48:47;;;;;;;1.33;0.98;;;18.20;39.40;;;;;;3898560;30;20072;-66
2022/04/20 10:51:12;;;;;;;1.10;1.00;;;18.20;39.60;;;;;;3898698;30;20476;-65
2022/04/20 10:53:36;;;;;;;1.08;1.08;;;18.30;38.70;;;;;;3898537;30;20059;-65
2022/04/20 10:56:02;;;;;;;1.83;1.20;;;18.30;37.90;;;;;;3897520;30;20097;-65
2022/04/20 10:58:24;;;;;;;1.30;1.20;;;18.30;39.70;;;;;;3898887;30;20056;-66
2022/04/20 11:00:46;;;;;;;1.60;1.50;;;18.30;38.80;;;;;;3898483;30;20133;-65
2022/04/20 11:03:10;;;;;;;1.10;1.10;;;18.30;38.10;;;;;;3884266;30;20140;-65
2022/04/20 11:05:33;;;;;;;0.80;0.80;;;18.40;37.90;;;;;;3884324;30;20061;-65
2022/04/20 11:08:07;;;;;;;0.90;0.90;;;18.40;38.40;;;;;;3889150;30;20144;-65
2022/04/20 11:10:31;;;;;;;2.45;1.00;;;18.40;38.40;;;;;;3898548;30;20529;-65
2022/04/20 11:19:07;;;;;;;1.40;1.30;;;18.40;38.50;;;;;;3896569;30;20061;-65
2022/04/20 11:21:55;;;;;;;1.08;1.08;;;18.40;39.20;;;;;;3904748;30;20098;-65
2022/04/20 11:24:27;;;;;;;2.10;1.38;;;18.40;39.10;;;;;;3912798;30;20053;-65
2022/04/20 11:26:51;;;;;;;1.10;1.10;;;18.40;38.50;;;;;;3912587;30;20084;-66
2022/04/20 11:29:15;;;;;;;1.65;1.00;;;18.40;39.30;;;;;;3913092;30;20064;-66
2022/04/20 11:31:42;;;;;;;1.40;1.30;;;18.40;39.10;;;;;;3913150;30;20414;-66
2022/04/20 11:34:05;;;;;;;1.38;1.23;;;18.50;39.10;;;;;;3912591;30;20069;-65
2022/04/20 11:36:27;;;;;;;1.88;1.20;;;18.50;38.80;;;;;;3899229;30;20059;-65
2022/04/20 11:38:50;;;;;;;2.53;1.80;;;18.50;38.20;;;;;;3912824;30;20067;-65
2022/04/20 11:41:16;;;;;;;1.75;1.25;;;18.60;38.70;;;;;;3912737;30;20057;-66
2022/04/20 11:43:38;;;;;;;1.77;0.98;;;18.50;38.90;;;;;;3911711;30;20107;-66
2022/04/20 11:46:06;;;;;;;1.48;1.00;;;18.50;38.50;;;;;;3899379;30;20059;-66
2022/04/20 11:48:29;;;;;;;1.55;1.10;;;18.50;38.60;;;;;;3912356;30;20095;-65
2022/04/20 11:50:56;;;;;;;2.80;1.30;;;18.50;39.00;;;;;;3907612;30;20480;-65
2022/04/20 11:53:19;;;;;;;1.90;1.23;;;18.60;38.90;;;;;;3927182;30;20063;-65
2022/04/20 11:55:54;;;;;;;1.48;1.35;;;18.60;38.50;;;;;;3913435;30;20238;-65
2022/04/20 11:58:17;;;;;;;1.30;1.30;;;18.60;39.10;;;;;;3926508;30;20056;-65
2022/04/20 12:00:41;;;;;;;2.38;1.52;;;18.60;39.70;;;;;;3915804;30;20056;-65
2022/04/20 12:03:03;;;;;;;1.55;1.45;;;18.60;39.60;;;;;;3912526;30;20052;-65
2022/04/20 12:05:27;;;;;;;1.35;1.15;;;18.60;39.30;;;;;;3884706;30;20060;-65
2022/04/20 12:07:51;;;;;;;1.35;1.17;;;18.60;39.00;;;;;;3885015;30;20065;-66
2022/04/20 12:10:14;;;;;;;3.10;1.20;;;18.60;39.40;;;;;;3898320;30;20103;-65
2022/04/20 12:12:35;;;;;;;1.10;1.02;;;18.60;39.80;;;;;;3907434;30;20060;-66
2022/04/20 12:15:07;;;;;;;1.10;1.10;;;18.60;39.70;;;;;;3912721;30;20060;-65
2022/04/20 12:17:31;;;;;;;4.28;1.73;;;18.70;39.00;;;;;;3912046;30;20052;-66
2022/04/20 12:19:53;;;;;;;4.47;1.52;;;18.70;39.70;;;;;;3912503;30;20457;-66
2022/04/20 12:22:19;;;;;;;1.77;1.67;;;18.70;39.20;;;;;;3912213;30;20114;-66
2022/04/20 12:24:42;;;;;;;1.40;1.30;;;18.70;39.10;;;;;;3912613;30;20056;-66
2022/04/20 12:27:16;;;;;;;5.90;1.50;;;18.70;39.10;;;;;;3912005;30;20075;-66
2022/04/20 12:29:38;;;;;;;1.45;1.23;;;18.70;38.90;;;;;;3912053;30;20045;-66
2022/04/20 12:32:02;;;;;;;1.50;1.40;;;18.70;39.50;;;;;;3912803;30;20150;-66
2022/04/20 12:34:28;;;;;;;1.63;1.48;;;18.70;39.70;;;;;;3912476;30;20060;-65
2022/04/20 12:36:59;;;;;;;1.50;1.40;;;18.70;39.80;;;;;;3911210;30;20115;-65
2022/04/20 12:39:30;;;;;;;2.08;1.40;;;18.70;40.20;;;;;;3910570;30;20604;-65
2022/04/20 12:41:55;;;;;;;3.20;1.83;;;18.70;40.00;;;;;;3897450;30;20057;-66
2022/04/20 12:44:37;;;;;;;1.60;1.55;;;18.70;40.10;;;;;;3898264;30;20080;-70
2022/04/20 12:46:59;;;;;;;2.15;1.50;;;18.80;39.90;;;;;;3909705;30;20053;-66
2022/04/20 12:49:25;;;;;;;1.52;1.42;;;18.70;40.40;;;;;;3926693;30;20062;-65
2022/04/20 12:51:48;;;;;;;2.08;1.90;;;18.70;40.70;;;;;;3923068;30;20079;-65
2022/04/20 12:54:10;;;;;;;1.73;1.63;;;18.80;40.70;;;;;;3911720;30;20115;-67
2022/04/20 13:02:05;;;;;;;1.75;1.42;;;18.80;40.90;;;;;;3912656;30;20073;-65
2022/04/20 13:04:28;;;;;;;1.02;0.98;;;18.80;41.20;;;;;;3912048;30;20056;-65
2022/04/20 13:06:50;;;;;;;2.33;1.67;;;18.80;40.20;;;;;;3912022;30;20052;-65
2022/04/20 13:09:12;;;;;;;2.03;1.75;;;18.80;39.60;;;;;;3912025;30;20067;-65
2022/04/20 13:11:36;;;;;;;1.65;1.55;;;18.80;40.10;;;;;;3914876;30;20529;-65
2022/04/20 13:14:01;;;;;;;2.28;2.08;;;18.80;40.80;;;;;;3901400;30;20492;-65
2022/04/20 13:16:23;;;;;;;2.53;2.40;;;18.80;41.10;;;;;;3914499;30;20060;-66
2022/04/20 13:18:45;;;;;;;2.30;2.10;;;18.80;41.50;;;;;;3913954;30;20053;-66
2022/04/20 13:21:10;;;;;;;3.45;2.60;;;18.90;41.30;;;;;;3914487;30;20421;-66
2022/04/20 13:23:32;;;;;;;4.68;2.10;;;18.90;41.80;;;;;;3914480;30;20508;-66
2022/04/20 13:28:35;;;;;;;3.30;2.25;;;18.90;41.20;;;;;;3914101;30;20454;-66
2022/04/20 13:30:57;;;;;;;2.83;2.22;;;18.90;41.20;;;;;;3914350;30;20134;-66
2022/04/20 13:33:20;;;;;;;2.38;2.20;;;18.90;41.20;;;;;;3914473;30;20052;-66
2022/04/20 13:35:45;;;;;;;4.30;2.85;;;18.90;41.70;;;;;;3914211;30;20519;-65
2022/04/20 13:38:09;;;;;;;2.78;2.58;;;18.90;41.80;;;;;;3913949;30;20063;-65